October 1, 2022

Time Code Weather Temp. Visibility Ceiling Wind METAR/SPECI
12:30
V
21 °C 10 km+ - 250° 250° 11 kt METAR LFBA 011030Z AUTO 25011KT 220V290 9999 FEW031 21/14 Q1023 TEMPO BKN013
12:00
V
20 °C 10 km+ 6,000 ft 260° 260° 10 kt METAR LFBA 011000Z AUTO 26010KT 210V290 9999 FEW026 BKN060 20/13 Q1023 TEMPO BKN013
11:30
M
19 °C 10 km+ 2,600 ft 250° 250° 10 kt METAR LFBA 010930Z AUTO 25010KT 210V280 9999 BKN026 OVC058 19/13 Q1023 TEMPO BKN013
11:00
V
18 °C 10 km+ 3,700 ft 260° 260° 9 kt METAR LFBA 010900Z AUTO 26009KT 230V290 9999 SCT028 OVC037 18/12 Q1022 NOSIG
10:30
V
17 °C 10 km+ 4,100 ft 240° 240° 7 kt METAR LFBA 010830Z AUTO 24007KT 200V280 9999 FEW032 OVC041 17/12 Q1022 NOSIG
10:00
V
17 °C 10 km+ 3,900 ft 250° 250° 5 kt METAR LFBA 010800Z AUTO 25005KT 210V290 9999 OVC039 17/12 Q1022 NOSIG
09:30
V
15 °C 10 km+ 4,300 ft 240° 240° 6 kt METAR LFBA 010730Z AUTO 24006KT 210V270 9999 OVC043 15/11 Q1022 NOSIG
09:00
V
14 °C 10 km+ 4,300 ft Var Var 3 kt METAR LFBA 010700Z AUTO VRB03KT 9999 OVC043 14/11 Q1021 NOSIG
08:30
V
13 °C 10 km+ 4,400 ft 120° 120° 3 kt METAR LFBA 010630Z AUTO 12003KT 080V180 9999 BKN044 OVC052 13/11 Q1021 NOSIG
08:00
V
12 °C 10 km+ 4,800 ft Var Var 3 kt METAR LFBA 010600Z AUTO VRB03KT 9999 FEW042 BKN048 OVC064 12/11 Q1021 NOSIG
07:30
V
12 °C 10 km+ - 090° 090° 3 kt METAR LFBA 010530Z AUTO 09003KT CAVOK 12/11 Q1020 NOSIG
07:00
V
11 °C 10 km+ 8,000 ft 090° 090° 3 kt METAR LFBA 010500Z AUTO 09003KT 9999 FEW042 OVC080 11/11 Q1020
06:30
V
11 °C 10 km+ 3,900 ft 090° 090° 5 kt METAR LFBA 010430Z AUTO 09005KT 9999 BKN039 OVC048 11/11 Q1020
06:00
V
11 °C 10 km+ 5,400 ft 100° 100° 4 kt METAR LFBA 010400Z AUTO 10004KT 9999 FEW032 BKN054 OVC094 11/11 Q1020
05:30
V
11 °C 10 km+ - 080° 080° 4 kt METAR LFBA 010330Z AUTO 08004KT 040V100 CAVOK 11/10 Q1020
05:00
V
11 °C 10 km+ 15,000 ft 110° 110° 4 kt METAR LFBA 010300Z AUTO 11004KT 9999 FEW045 SCT110 BKN150 11/10 Q1020
04:30
V
11 °C 10 km+ 4,600 ft 090° 090° 3 kt METAR LFBA 010230Z AUTO 09003KT 070V150 9999 BKN046 OVC100 11/10 Q1020
04:00
V
11 °C 10 km+ - Var Var 2 kt METAR LFBA 010200Z AUTO VRB02KT 9999 -RA NSC 11/10 Q1020
03:30
V
11 °C 10 km+ 12,000 ft 080° 080° 3 kt METAR LFBA 010130Z AUTO 08003KT 9999 FEW045 SCT092 BKN120 11/09 Q1019
03:00
V
10 °C 10 km+ 13,000 ft 100° 100° 4 kt METAR LFBA 010100Z AUTO 10004KT 9999 FEW045 SCT098 BKN130 10/09 Q1020
02:30
V
10 °C 10 km+ - 090° 090° 3 kt METAR LFBA 010030Z AUTO 09003KT CAVOK 10/09 Q1020
02:00
V
11 °C 10 km+ - Var 000° 0 kt METAR LFBA 010000Z AUTO 00000KT CAVOK 11/08 Q1020
01:30
V
11 °C 10 km+ - Var Var 3 kt METAR LFBA 302330Z AUTO VRB03KT CAVOK 11/08 Q1020
01:00
V
11 °C 10 km+ - Var Var 1 kt METAR LFBA 302300Z AUTO VRB01KT CAVOK 11/08 Q1020
00:30
V
12 °C 10 km+ - 260° 260° 4 kt METAR LFBA 302230Z AUTO 26004KT 230V290 CAVOK 12/08 Q1020
00:00
V
12 °C 10 km+ - Var Var 1 kt METAR LFBA 302200Z AUTO VRB01KT CAVOK 12/07 Q1019

September 30, 2022

Time Code Weather Temp. Visibility Ceiling Wind METAR/SPECI
23:30
V
13 °C 10 km+ - 240° 240° 3 kt METAR LFBA 302130Z AUTO 24003KT CAVOK 13/08 Q1019
23:00
V
13 °C 10 km+ - 230° 230° 3 kt METAR LFBA 302100Z AUTO 23003KT CAVOK 13/08 Q1019
22:30
V
13 °C 10 km+ - 270° 270° 3 kt METAR LFBA 302030Z AUTO 27003KT 230V290 CAVOK 13/08 Q1019
22:00
V
14 °C 10 km+ - 270° 270° 6 kt METAR LFBA 302000Z AUTO 27006KT CAVOK 14/08 Q1018 NOSIG
21:30
V
15 °C 10 km+ - 260° 260° 6 kt METAR LFBA 301930Z AUTO 26006KT 230V290 CAVOK 15/08 Q1018 NOSIG
21:00
V
15 °C 10 km+ - 240° 240° 5 kt METAR LFBA 301900Z AUTO 24005KT CAVOK 15/07 Q1018 NOSIG
20:30
V
15 °C 10 km+ - 240° 240° 4 kt METAR LFBA 301830Z AUTO 24004KT CAVOK 15/07 Q1017 NOSIG
20:00
V
16 °C 10 km+ - 250° 250° 4 kt METAR LFBA 301800Z AUTO 25004KT CAVOK 16/07 Q1017 NOSIG
19:30
V
16 °C 10 km+ - 280° 280° 4 kt METAR LFBA 301730Z AUTO 28004KT CAVOK 16/07 Q1017 NOSIG
19:00
V
18 °C 10 km+ - 320° 320° 6 kt METAR LFBA 301700Z AUTO 32006KT CAVOK 18/07 Q1016 NOSIG
18:30
V
19 °C 10 km+ - 330° 330° 8 kt METAR LFBA 301630Z AUTO 33008KT 290V360 CAVOK 19/08 Q1016 NOSIG
18:00
V
19 °C 10 km+ - 320° 320° 8 kt METAR LFBA 301600Z AUTO 32008KT 290V350 CAVOK 19/07 Q1015 NOSIG
17:30
V
20 °C 10 km+ - 300° 300° 8 kt METAR LFBA 301530Z AUTO 30008KT 260V340 CAVOK 20/08 Q1015 NOSIG
17:00
V
20 °C 10 km+ - 320° 320° 7 kt METAR LFBA 301500Z AUTO 32007KT 290V010 CAVOK 20/08 Q1015 NOSIG
16:30
V
19 °C 10 km+ - 320° 320° 8 kt METAR LFBA 301430Z AUTO 32008KT 280V360 9999 FEW049 19/08 Q1015 NOSIG
16:00
V
20 °C 10 km+ - 300° 300° 8 kt METAR LFBA 301400Z AUTO 30008KT 260V330 9999 SCT047 SCT058 20/09 Q1015 NOSIG
15:30
V
19 °C 10 km+ 4,500 ft 330° 330° 10 kt METAR LFBA 301330Z AUTO 33010KT 270V010 9999 BKN045 BKN058 OVC070 19/08 Q1015 NOSIG
15:00
V
19 °C 10 km+ 6,000 ft 280° 280° 9 kt METAR LFBA 301300Z AUTO 28009KT 220V330 9999 SCT044 BKN060 19/09 Q1015 NOSIG
14:30
V
18 °C 10 km+ - 270° 270° 7 kt METAR LFBA 301230Z AUTO 27007KT 200V330 9999 SCT043 18/08 Q1015 NOSIG
14:00
V
18 °C 10 km+ - 330° 330° 9 kt METAR LFBA 301200Z AUTO 33009KT 280V360 9999 FEW035 18/08 Q1015 NOSIG
13:30
V
18 °C 10 km+ - 290° 290° 7 kt METAR LFBA 301130Z AUTO 29007KT 250V340 9999 SCT036 SCT042 18/10 Q1015 NOSIG
13:00
V
17 °C 10 km+ - 330° 330° 6 kt METAR LFBA 301100Z AUTO 33006KT 290V360 9999 FEW029 SCT035 17/10 Q1015 NOSIG
12:30
V
17 °C 10 km+ 3,000 ft 280° 280° 5 kt METAR LFBA 301030Z AUTO 28005KT 190V360 9999 BKN030 17/10 Q1015 NOSIG
12:00
V
16 °C 10 km+ - 290° 290° 7 kt METAR LFBA 301000Z AUTO 29007KT 260V350 9999 FEW023 16/11 Q1015 NOSIG
11:30
V
15 °C 10 km+ - 300° 300° 6 kt METAR LFBA 300930Z AUTO 30006KT 270V340 CAVOK 15/11 Q1014 NOSIG
11:00
V
14 °C 10 km+ - Var Var 3 kt METAR LFBA 300900Z AUTO VRB03KT CAVOK 14/10 Q1014 NOSIG
10:30
V
13 °C 10 km+ - 290° 290° 3 kt METAR LFBA 300830Z AUTO 29003KT 250V330 9999 FEW010 13/11 Q1014 NOSIG
10:00
V
12 °C 10 km+ - 280° 280° 6 kt METAR LFBA 300800Z AUTO 28006KT 250V320 9999 FEW008 12/10 Q1013 NOSIG
09:30
V
11 °C 10 km+ - 280° 280° 5 kt METAR LFBA 300730Z AUTO 28005KT CAVOK 11/10 Q1013 NOSIG
09:00
V
11 °C 10 km+ - 290° 290° 3 kt METAR LFBA 300700Z AUTO 29003KT 260V320 CAVOK 11/10 Q1012 TEMPO 4000 BR BKN003
08:30
V
11 °C 10 km+ - 310° 310° 5 kt METAR LFBA 300630Z AUTO 31005KT CAVOK 11/10 Q1012 TEMPO 4000 BR BKN003
08:00
V
11 °C 10 km+ 8,600 ft 290° 290° 5 kt METAR LFBA 300600Z AUTO 29005KT 9999 FEW024/// SCT039/// OVC086/// //////TCU 11/10 Q1012
07:30
M
11 °C 10 km+ 2,400 ft 270° 270° 6 kt METAR LFBA 300530Z AUTO 27006KT 9999 BKN024 BKN032 OVC062 11/10 Q1011
07:00
M
10 °C 10 km+ 2,400 ft 270° 270° 3 kt METAR LFBA 300500Z AUTO 27003KT 9999 BKN024 OVC086 10/10 Q1011
06:30
V
10 °C 10 km+ - 260° 260° 2 kt METAR LFBA 300430Z AUTO 26002KT CAVOK 10/09 Q1011
06:00
V
10 °C 10 km+ - 270° 270° 3 kt METAR LFBA 300400Z AUTO 27003KT 230V300 CAVOK 10/09 Q1010
05:30
V
10 °C 10 km+ - 250° 250° 4 kt METAR LFBA 300330Z AUTO 25004KT CAVOK 10/09 Q1010
05:00
V
10 °C 10 km+ - 300° 300° 3 kt METAR LFBA 300300Z AUTO 30003KT 270V330 CAVOK 10/09 Q1009
04:30
V
11 °C 10 km+ - 240° 240° 5 kt METAR LFBA 300230Z AUTO 24005KT CAVOK 11/09 Q1009
04:00
V
11 °C 10 km+ - 250° 250° 4 kt METAR LFBA 300200Z AUTO 25004KT 220V290 CAVOK 11/10 Q1009
03:30
V
11 °C 10 km+ - Var Var 3 kt METAR LFBA 300130Z AUTO VRB03KT CAVOK 11/10 Q1009
03:00
V
11 °C 10 km+ - 250° 250° 3 kt METAR LFBA 300100Z AUTO 25003KT CAVOK 11/10 Q1009
02:30
V
10 °C 10 km+ - 280° 280° 4 kt METAR LFBA 300030Z AUTO 28004KT CAVOK 10/09 Q1009
02:00
V
11 °C 10 km+ - 250° 250° 4 kt METAR LFBA 300000Z AUTO 25004KT CAVOK 11/10 Q1009
01:30
V
11 °C 10 km+ - 250° 250° 3 kt METAR LFBA 292330Z AUTO 25003KT CAVOK 11/10 Q1009
01:00
V
11 °C 10 km+ - 260° 260° 4 kt METAR LFBA 292300Z AUTO 26004KT CAVOK 11/10 Q1009
00:30
V
11 °C 10 km+ - 290° 290° 5 kt METAR LFBA 292230Z AUTO 29005KT CAVOK 11/10 Q1008
00:00
V
12 °C 10 km+ - 280° 280° 4 kt METAR LFBA 292200Z AUTO 28004KT CAVOK 12/11 Q1008

September 29, 2022

Time Code Weather Temp. Visibility Ceiling Wind METAR/SPECI
23:30
V
12 °C 10 km+ - 280° 280° 6 kt METAR LFBA 292130Z AUTO 28006KT CAVOK 12/11 Q1008
23:00
V
12 °C 10 km+ - 270° 270° 4 kt METAR LFBA 292100Z AUTO 27004KT 9999 FEW049/// SCT110/// ///TCU 12/11 Q1008
22:30
V
13 °C 10 km+ - 270° 270° 5 kt METAR LFBA 292030Z AUTO 27005KT CAVOK 13/12 Q1007
22:00
V
13 °C 10 km+ 23,000 ft 270° 270° 5 kt METAR LFBA 292000Z AUTO 27005KT 9999 FEW011 SCT064 BKN230 13/12 Q1007
21:30
V
13 °C 10 km+ - 270° 270° 3 kt METAR LFBA 291930Z AUTO 27003KT CAVOK 13/12 Q1006
21:00
V
13 °C 10 km+ 21,000 ft 290° 290° 4 kt METAR LFBA 291900Z AUTO 29004KT 9999 FEW016/// BKN210/// ///TCU 13/12 Q1006
20:30
M
14 °C 10 km+ 1,000 ft 280° 280° 5 kt METAR LFBA 291830Z AUTO 28005KT 9999 BKN010/// OVC016/// //////TCU 14/12 Q1005
20:00
M
14 °C 10 km+ 1,100 ft 310° 310° 3 kt METAR LFBA 291800Z AUTO 31003KT 280V340 9999 -RA BKN011/// BKN036/// OVC070/// //////TCU 14/13 Q1005
19:30
V
14 °C 10 km+ 4,900 ft 300° 300° 4 kt METAR LFBA 291730Z AUTO 30004KT 9999 FEW015/// SCT042/// BKN049/// ///TCU 14/13 Q1005 TEMPO 2000 RA BKN013 SCT025CB
19:00
V
14 °C 10 km+ 4,000 ft 300° 300° 5 kt METAR LFBA 291700Z AUTO 30005KT 9999 FEW016/// BKN040/// BKN096/// ///CB 14/13 Q1005 TEMPO 2000 RA BKN013 SCT025CB
18:30
V
14 °C 10 km+ 5,000 ft 310° 310° 9 kt METAR LFBA 291630Z AUTO 31009KT 9999 -RA FEW017/// SCT025/// BKN050/// //////CB 14/12 Q1004 TEMPO 2000 RA BKN013 SCT025CB
18:00
M
15 °C 10 km+ 2,800 ft 310° 310° 12 kt METAR LFBA 291600Z AUTO 31012KT 9999 -RA SCT020/// BKN028/// BKN060/// //////CB 15/12 Q1004 TEMPO 2000 RA BKN013 SCT025CB
17:30
V
16 °C 10 km+ 7,800 ft 280° 280° 10 kt METAR LFBA 291530Z AUTO 28010KT 240V310 9999 SCT024/// SCT033/// BKN078/// //////CB 16/12 Q1003 TEMPO 2000 RA BKN013 SCT025CB
17:00
V
17 °C 10 km+ 9,400 ft 280° 280° 9 kt METAR LFBA 291500Z AUTO 28009KT 9999 FEW025/// BKN094/// ///CB 17/12 Q1003 TEMPO 34010KT 2000 RA BKN013 SCT025CB
16:30
M
17 °C 10 km+ 2,300 ft 280° 280° 12 kt METAR LFBA 291430Z AUTO 28012KT 9999 BKN023/// BKN096/// //////CB 17/12 Q1003 TEMPO 34010KT 2000 RA BKN013 SCT025CB
16:00
V
17 °C 10 km+ 4,200 ft 280° 280° 13 kt METAR LFBA 291400Z AUTO 28013KT 9999 SCT020/// SCT030/// BKN042/// //////CB 17/13 Q1003 TEMPO 34010KT 2000 RA BKN013 SCT025CB
15:30
M
16 °C 10 km+ 2,500 ft 280° 280° 13 kt METAR LFBA 291330Z AUTO 28013KT 240V300 9999 BKN025/// BKN031/// OVC038/// ///CB 16/12 Q1003 TEMPO 2000 RA BKN013 SCT025CB
15:00
M
17 °C 10 km+ 2,200 ft 270° 270° 11 kt METAR LFBA 291300Z AUTO 27011KT 240V320 9999 BKN022/// BKN029/// BKN045/// //////CB 17/13 Q1003 TEMPO 2000 RA BKN013 SCT025CB
14:30
V
15 °C 10 km+ 6,400 ft 280° 280° 5 kt METAR LFBA 291230Z AUTO 28005KT 260V320 9999 FEW024/// SCT047/// BKN064/// ///CB 15/14 Q1003 TEMPO 2000 RA BKN013 SCT025CB
14:00
L
15 °C 900 m 2,200 ft 260° 260° 11 - 24 kt METAR LFBA 291200Z AUTO 26011G24KT 210V290 9999 0900 R29/1300D +RA BCFG FEW011/// BKN022/// BKN027/// //////CB 15/12 Q1003 TEMPO 3000 SHRA BKN010CB
13:30
M
17 °C 10 km+ 2,200 ft 280° 280° 9 kt METAR LFBA 291130Z AUTO 28009KT 9999 BKN022/// BKN028/// BKN036/// //////TCU 17/13 Q1003 TEMPO 3000 SHRA BKN010TCU
13:00
M
16 °C 10 km+ 2,700 ft 270° 270° 9 kt METAR LFBA 291100Z AUTO 27009KT 230V300 9999 R29/1400U SCT019/// BKN027/// BKN034/// ///TCU 16/13 Q1004 TEMPO 3000 SHRA BKN010TCU
Older data

We and third parties follow your internet behavior on our website with cookies. If you continue, we assume you agree with our cookie policy. Learn more